Terminal Aerodrome Forecast
Issued by NWS

Home | Current Version | Previous Version | Text Only | Print | Product List | Glossary On
Versions: 1 2 3 4 5 6 7 8 9 10 11 12 13 14 15 16 17 18 19 20
000
FTUS43 KGRB 280113 AAA
TAFATW
TAF AMD
KATW 280113Z 2801/2824 04005KT P6SM OVC006
     FM280500 26003KT 2SM BR BKN003
      TEMPO 2810/2813 1/2SM FG VV002
     FM281400 29004KT P6SM SCT004 BKN020
     FM281700 24006KT P6SM SCT025=

USA.gov is the U.S. government's official web portal to all federal, state and local government web resources and services.